createdAt,value
2023-06-12T00:01:44.362Z,97767.00
2023-06-12T00:04:12.824Z,97766.06
2023-06-12T00:06:44.187Z,97760.09
2023-06-12T00:09:13.271Z,97757.81
2023-06-12T00:11:42.905Z,97755.25
2023-06-12T00:14:12.229Z,97756.88
2023-06-12T00:16:40.698Z,97754.63
2023-06-12T00:19:08.725Z,97761.56
2023-06-12T00:21:38.238Z,97762.53
2023-06-12T00:24:10.096Z,97759.63
2023-06-12T00:26:38.497Z,97764.31
2023-06-12T00:29:06.527Z,97766.06
2023-06-12T00:31:36.184Z,97759.00
2023-06-12T00:34:04.167Z,97756.41
2023-06-12T00:36:32.696Z,97763.66
2023-06-12T00:39:00.709Z,97756.44
2023-06-12T00:41:28.880Z,97749.50
2023-06-12T00:43:56.879Z,97754.38
2023-06-12T00:46:25.454Z,97754.84
2023-06-12T00:48:55.138Z,97755.00
2023-06-12T00:51:28.933Z,97752.75
2023-06-12T00:53:58.107Z,97753.88
2023-06-12T00:56:28.439Z,97758.88
2023-06-12T00:58:57.266Z,97756.94
2023-06-12T01:01:26.842Z,97757.44
2023-06-12T01:03:59.269Z,97761.28
2023-06-12T01:06:35.805Z,97759.84
2023-06-12T01:09:09.869Z,97761.56
2023-06-12T01:11:39.567Z,97765.25
2023-06-12T01:14:07.909Z,97763.66
2023-06-12T01:16:36.198Z,97758.97
2023-06-12T01:19:06.993Z,97768.16
2023-06-12T01:21:37.028Z,97772.38
2023-06-12T01:24:24.145Z,97775.22
2023-06-12T01:27:12.448Z,97767.50
2023-06-12T01:30:03.877Z,97764.59
2023-06-12T01:32:39.116Z,97765.38
2023-06-12T01:35:12.927Z,97770.34
2023-06-12T01:37:47.378Z,97767.00
2023-06-12T01:40:18.669Z,97760.72
2023-06-12T01:42:47.217Z,97766.03
2023-06-12T01:45:15.899Z,97764.41
2023-06-12T01:47:45.427Z,97762.78
2023-06-12T01:50:14.779Z,97760.19
2023-06-12T01:52:43.269Z,97762.75
2023-06-12T01:55:12.135Z,97761.31
2023-06-12T01:57:40.202Z,97760.63
2023-06-12T02:00:10.660Z,97757.25
2023-06-12T02:02:40.993Z,97752.09
2023-06-12T02:05:11.132Z,97755.91
2023-06-12T02:07:39.593Z,97755.75
2023-06-12T02:10:08.848Z,97752.00
2023-06-12T02:12:36.878Z,97755.56
2023-06-12T02:15:05.991Z,97749.91
2023-06-12T02:17:35.085Z,97757.59
2023-06-12T02:20:04.599Z,97756.31
2023-06-12T02:22:34.096Z,97750.97
2023-06-12T02:25:03.262Z,97760.16
2023-06-12T02:27:31.531Z,97752.91
2023-06-12T02:29:59.702Z,97758.03
2023-06-12T02:32:28.891Z,97758.03
2023-06-12T02:34:57.179Z,97760.91
2023-06-12T02:37:25.473Z,97763.75
2023-06-12T02:39:54.905Z,97762.13
2023-06-12T02:42:23.094Z,97769.53
2023-06-12T02:44:51.050Z,97762.13
2023-06-12T02:47:19.877Z,97763.56
2023-06-12T02:49:48.416Z,97769.03
2023-06-12T02:52:16.760Z,97770.63
2023-06-12T02:54:44.796Z,97772.56
2023-06-12T02:57:15.509Z,97768.22
2023-06-12T02:59:43.515Z,97765.00
2023-06-12T03:02:11.660Z,97758.25
2023-06-12T03:04:39.864Z,97762.59
2023-06-12T03:07:08.005Z,97771.09
2023-06-12T03:09:38.405Z,97768.34
2023-06-12T03:12:06.947Z,97766.13
2023-06-12T03:14:37.759Z,97769.16
2023-06-12T03:17:06.095Z,97771.69
2023-06-12T03:19:34.553Z,97774.56
2023-06-12T03:22:02.997Z,97769.22
2023-06-12T03:24:31.453Z,97775.50
2023-06-12T03:27:00.463Z,97772.41
2023-06-12T03:29:28.690Z,97781.19
2023-06-12T03:31:58.307Z,97780.00
2023-06-12T03:34:26.693Z,97778.41
2023-06-12T03:36:55.031Z,97775.97
2023-06-12T03:39:23.019Z,97775.19
2023-06-12T03:41:57.461Z,97781.75
2023-06-12T03:44:26.305Z,97779.13
2023-06-12T03:46:54.586Z,97792.28
2023-06-12T03:49:24.545Z,97791.59
2023-06-12T03:51:52.647Z,97790.56
2023-06-12T03:54:21.558Z,97787.78
2023-06-12T03:56:50.588Z,97787.72
2023-06-12T03:59:20.040Z,97790.75
2023-06-12T04:01:49.877Z,97805.19
2023-06-12T04:04:18.346Z,97798.59
2023-06-12T04:06:48.030Z,97806.78
2023-06-12T04:09:17.018Z,97807.09
2023-06-12T04:11:45.694Z,97805.19
2023-06-12T04:14:13.814Z,97808.09
2023-06-12T04:16:41.809Z,97815.28
2023-06-12T04:19:10.507Z,97814.97
2023-06-12T04:21:39.197Z,97825.16
2023-06-12T04:24:14.556Z,97820.03
2023-06-12T04:26:43.023Z,97832.44
2023-06-12T04:29:11.182Z,97829.13
2023-06-12T04:31:39.601Z,97837.00
2023-06-12T04:34:08.638Z,97830.13
2023-06-12T04:36:39.074Z,97834.34
2023-06-12T04:39:12.880Z,97835.66
2023-06-12T04:41:42.644Z,97830.41
2023-06-12T04:44:10.650Z,97836.66
2023-06-12T04:46:38.717Z,97827.38
2023-06-12T04:49:07.081Z,97830.66
2023-06-12T04:51:35.157Z,97832.00
2023-06-12T04:54:06.066Z,97828.66
2023-06-12T04:56:35.814Z,97831.25
2023-06-12T04:59:03.934Z,97839.03
2023-06-12T05:01:34.548Z,97841.13
2023-06-12T05:04:04.092Z,97838.91
2023-06-12T05:06:34.196Z,97836.88
2023-06-12T05:09:07.023Z,97841.09
2023-06-12T05:11:36.580Z,97837.94
2023-06-12T05:14:04.838Z,97856.72
2023-06-12T05:16:33.678Z,97853.88
2023-06-12T05:19:01.960Z,97854.06
2023-06-12T05:21:30.015Z,97855.88
2023-06-12T05:23:58.415Z,97853.50
2023-06-12T05:26:26.590Z,97853.69
2023-06-12T05:28:56.052Z,97847.31
2023-06-12T05:31:24.544Z,97851.31
2023-06-12T05:33:52.796Z,97856.13
2023-06-12T05:36:21.093Z,97845.41
2023-06-12T05:38:49.754Z,97848.63
2023-06-12T05:41:19.100Z,97851.72
2023-06-12T05:43:48.404Z,97846.47
2023-06-12T05:46:26.106Z,97847.16
2023-06-12T05:48:56.428Z,97842.38
2023-06-12T05:51:24.490Z,97837.88
2023-06-12T05:53:52.897Z,97849.19
2023-06-12T05:56:21.931Z,97846.00
2023-06-12T05:58:50.158Z,97841.06
2023-06-12T06:01:23.342Z,97838.19
2023-06-12T06:03:52.399Z,97845.56
2023-06-12T06:06:20.706Z,97836.25
2023-06-12T06:08:48.759Z,97843.81
2023-06-12T06:11:16.839Z,97841.28
2023-06-12T06:13:45.798Z,97848.19
2023-06-12T06:16:14.212Z,97841.63
2023-06-12T06:18:43.945Z,97845.00
2023-06-12T06:21:12.765Z,97839.41
2023-06-12T06:23:42.107Z,97836.19
2023-06-12T06:26:11.000Z,97849.13
2023-06-12T06:28:39.153Z,97847.03
2023-06-12T06:31:09.004Z,97847.06
2023-06-12T06:33:37.786Z,97838.38
2023-06-12T06:36:08.103Z,97845.78
2023-06-12T06:38:36.083Z,97841.91
2023-06-12T06:41:04.533Z,97842.38
2023-06-12T06:43:32.576Z,97849.00
2023-06-12T06:46:00.984Z,97853.50
2023-06-12T06:48:29.065Z,97858.66
2023-06-12T06:50:58.338Z,97852.72
2023-06-12T06:53:27.755Z,97860.44
2023-06-12T06:55:55.789Z,97855.59
2023-06-12T06:58:23.770Z,97857.19
2023-06-12T07:00:51.761Z,97854.28
2023-06-12T07:03:20.258Z,97855.53
2023-06-12T07:05:48.527Z,97853.91
2023-06-12T07:08:16.714Z,97851.59
2023-06-12T07:10:46.161Z,97852.53
2023-06-12T07:13:14.781Z,97855.25
2023-06-12T07:15:43.159Z,97850.38
2023-06-12T07:18:12.560Z,97848.19
2023-06-12T07:20:41.229Z,97849.69
2023-06-12T07:23:09.357Z,97844.09
2023-06-12T07:25:37.376Z,97846.09
2023-06-12T07:28:06.988Z,97850.19
2023-06-12T07:30:35.603Z,97851.78
2023-06-12T07:33:04.097Z,97847.53
2023-06-12T07:35:32.168Z,97852.94
2023-06-12T07:38:00.737Z,97845.78
2023-06-12T07:40:29.235Z,97848.09
2023-06-12T07:42:57.421Z,97849.16
2023-06-12T07:45:26.988Z,97850.81
2023-06-12T07:47:56.847Z,97848.97
2023-06-12T07:50:24.906Z,97842.84
2023-06-12T07:52:53.134Z,97844.41
2023-06-12T07:55:21.214Z,97843.97
2023-06-12T07:57:50.898Z,97848.59
2023-06-12T08:00:19.256Z,97843.16
2023-06-12T08:02:59.488Z,97838.69
2023-06-12T08:05:28.096Z,97850.00
2023-06-12T08:07:56.639Z,97837.72
2023-06-12T08:10:24.787Z,97834.34
2023-06-12T08:12:53.774Z,97834.44
2023-06-12T08:15:23.034Z,97829.31
2023-06-12T08:17:52.719Z,97832.00
2023-06-12T08:20:20.953Z,97838.84
2023-06-12T08:22:49.626Z,97827.44
2023-06-12T08:25:17.587Z,97831.06
2023-06-12T08:27:46.059Z,97829.78
2023-06-12T08:30:16.168Z,97830.00
2023-06-12T08:32:44.594Z,97830.59
2023-06-12T08:35:16.474Z,97828.56
2023-06-12T08:37:45.282Z,97819.03
2023-06-12T08:40:13.625Z,97824.31
2023-06-12T08:42:51.175Z,97823.16
2023-06-12T08:45:22.549Z,97822.88
2023-06-12T08:47:51.946Z,97821.88
2023-06-12T08:50:22.387Z,97823.31
2023-06-12T08:52:51.869Z,97833.50
2023-06-12T08:55:22.845Z,97824.56
2023-06-12T08:57:50.948Z,97834.72
2023-06-12T09:00:20.557Z,97824.94
2023-06-12T09:02:54.019Z,97818.97
2023-06-12T09:05:26.962Z,97825.09
2023-06-12T09:07:55.556Z,97825.84
2023-06-12T09:10:23.569Z,97822.06
2023-06-12T09:12:56.656Z,97821.56
2023-06-12T09:15:25.420Z,97822.16
2023-06-12T09:17:54.922Z,97826.88
2023-06-12T09:20:41.685Z,97820.47
2023-06-12T09:23:13.169Z,97813.69
2023-06-12T09:25:47.469Z,97826.44
2023-06-12T09:28:32.681Z,97821.34
2023-06-12T09:31:01.425Z,97825.50
2023-06-12T09:33:30.247Z,97816.53
2023-06-12T09:36:01.667Z,97819.53
2023-06-12T09:38:33.240Z,97812.72
2023-06-12T09:41:02.904Z,97813.16
2023-06-12T09:43:31.227Z,97816.47
2023-06-12T09:46:00.335Z,97809.69
2023-06-12T09:48:33.612Z,97810.00
2023-06-12T09:51:08.442Z,97817.34
2023-06-12T09:53:41.550Z,97820.75
2023-06-12T09:56:11.453Z,97817.00
2023-06-12T09:58:40.937Z,97813.22
2023-06-12T10:01:09.832Z,97807.75
2023-06-12T10:03:40.829Z,97806.72
2023-06-12T10:06:13.203Z,97800.81
2023-06-12T10:08:42.116Z,97810.19
2023-06-12T10:11:11.835Z,97805.81
2023-06-12T10:13:41.327Z,97795.63
2023-06-12T10:16:10.212Z,97793.84
2023-06-12T10:18:38.634Z,97797.19
2023-06-12T10:21:08.170Z,97805.66
2023-06-12T10:23:39.189Z,97804.38
2023-06-12T10:26:07.863Z,97804.59
2023-06-12T10:28:37.081Z,97801.81
2023-06-12T10:31:14.133Z,97793.59
2023-06-12T10:33:58.860Z,97785.66
2023-06-12T10:36:29.185Z,97779.50
2023-06-12T10:39:06.601Z,97778.72
2023-06-12T10:41:35.114Z,97785.34
2023-06-12T10:44:24.898Z,97774.81
2023-06-12T10:46:54.363Z,97778.50
2023-06-12T10:49:22.688Z,97769.47
2023-06-12T10:51:51.009Z,97764.97
2023-06-12T10:54:27.107Z,97761.41
2023-06-12T10:56:59.303Z,97752.69
2023-06-12T10:59:36.705Z,97770.69
2023-06-12T11:02:05.497Z,97762.66
2023-06-12T11:04:38.772Z,97759.91
2023-06-12T11:07:07.914Z,97757.50
2023-06-12T11:09:42.814Z,97753.69
2023-06-12T11:12:11.371Z,97756.56
2023-06-12T11:14:39.521Z,97747.31
2023-06-12T11:17:08.059Z,97746.91
2023-06-12T11:19:36.136Z,97745.34
2023-06-12T11:22:05.799Z,97747.84
2023-06-12T11:24:34.109Z,97742.97
2023-06-12T11:27:04.016Z,97742.41
2023-06-12T11:29:52.539Z,97734.06
2023-06-12T11:32:24.647Z,97741.66
2023-06-12T11:34:54.189Z,97742.13
2023-06-12T11:37:26.696Z,97747.31
2023-06-12T11:40:02.408Z,97744.19
2023-06-12T11:42:31.792Z,97735.88
2023-06-12T11:44:59.766Z,97737.06
2023-06-12T11:49:59.304Z,97736.69
2023-06-12T11:52:27.474Z,97724.38
2023-06-12T11:57:35.055Z,97729.31
2023-06-12T12:00:13.373Z,97728.47
2023-06-12T12:02:44.630Z,97714.13
2023-06-12T12:05:15.291Z,97716.69
2023-06-12T12:07:46.702Z,97710.47
2023-06-12T12:10:15.906Z,97710.50
2023-06-12T12:12:47.092Z,97714.56
2023-06-12T12:15:17.162Z,97711.06
2023-06-12T12:17:48.447Z,97695.97
2023-06-12T12:20:20.301Z,97700.75
2023-06-12T12:22:49.967Z,97701.16
2023-06-12T12:25:21.356Z,97695.19
2023-06-12T12:27:52.488Z,97692.78
2023-06-12T12:30:22.316Z,97695.56
2023-06-12T12:32:52.777Z,97686.03
2023-06-12T12:35:21.478Z,97692.78
2023-06-12T12:37:51.688Z,97694.38
2023-06-12T12:40:20.296Z,97696.78
2023-06-12T12:42:50.675Z,97688.81
2023-06-12T12:45:20.082Z,97687.63
2023-06-12T12:47:49.702Z,97685.66
2023-06-12T12:50:22.554Z,97679.69
2023-06-12T12:52:53.521Z,97673.28
2023-06-12T12:55:21.506Z,97664.13
2023-06-12T12:57:59.504Z,97676.09
2023-06-12T13:00:30.735Z,97666.97
2023-06-12T13:02:59.262Z,97670.56
2023-06-12T13:05:27.318Z,97659.41
2023-06-12T13:07:56.463Z,97657.84
2023-06-12T13:10:24.571Z,97654.25
2023-06-12T13:12:53.932Z,97664.19
2023-06-12T13:15:22.490Z,97657.03
2023-06-12T13:17:52.424Z,97655.44
2023-06-12T13:20:20.672Z,97661.41
2023-06-12T13:22:48.591Z,97651.88
2023-06-12T13:25:18.890Z,97666.56
2023-06-12T13:27:47.238Z,97665.78
2023-06-12T13:30:16.882Z,97651.88
2023-06-12T13:32:44.913Z,97654.63
2023-06-12T13:35:12.962Z,97649.81
2023-06-12T13:37:41.965Z,97652.41
2023-06-12T13:40:14.500Z,97651.72
2023-06-12T13:42:44.745Z,97640.66
2023-06-12T13:45:14.640Z,97652.56
2023-06-12T13:47:47.340Z,97654.56
2023-06-12T13:50:16.203Z,97647.81
2023-06-12T13:52:44.565Z,97652.59
2023-06-12T13:55:12.690Z,97649.44
2023-06-12T13:57:44.387Z,97649.47
2023-06-12T14:00:14.103Z,97637.56
2023-06-12T14:02:43.898Z,97655.03
2023-06-12T14:05:12.943Z,97650.28
2023-06-12T14:07:41.776Z,97647.09
2023-06-12T14:10:11.544Z,97647.00
2023-06-12T14:12:40.229Z,97652.59
2023-06-12T14:15:09.825Z,97643.06
2023-06-12T14:17:38.181Z,97636.69
2023-06-12T14:20:09.032Z,97639.88
2023-06-12T14:22:37.075Z,97638.69
2023-06-12T14:25:05.673Z,97620.44
2023-06-12T14:27:33.836Z,97635.91
2023-06-12T14:30:01.855Z,97628.72
2023-06-12T14:32:30.225Z,97630.25
2023-06-12T14:34:58.354Z,97617.16
2023-06-12T14:37:27.809Z,97621.13
2023-06-12T14:39:56.186Z,97618.41
2023-06-12T14:42:27.158Z,97612.47
2023-06-12T14:44:56.121Z,97615.25
2023-06-12T14:47:24.128Z,97610.44
2023-06-12T14:49:52.210Z,97605.66
2023-06-12T14:54:54.463Z,97612.88
2023-06-12T14:57:22.908Z,97602.53
2023-06-12T14:59:50.969Z,97598.94
2023-06-12T15:02:19.065Z,97598.16
2023-06-12T15:04:47.409Z,97594.16
2023-06-12T15:07:15.597Z,97596.13
2023-06-12T15:09:44.876Z,97597.34
2023-06-12T15:12:14.513Z,97592.13
2023-06-12T15:14:42.547Z,97587.31
2023-06-12T15:17:10.939Z,97582.94
2023-06-12T15:19:39.237Z,97583.34
2023-06-12T15:22:07.987Z,97589.69
2023-06-12T15:24:36.266Z,97583.31
2023-06-12T15:27:04.778Z,97593.97
2023-06-12T15:29:34.527Z,97587.97
2023-06-12T15:32:05.958Z,97587.47
2023-06-12T15:34:34.475Z,97584.31
2023-06-12T15:37:02.666Z,97582.75
2023-06-12T15:39:30.875Z,97580.09
2023-06-12T15:42:01.024Z,97577.59
2023-06-12T15:44:31.197Z,97575.97
2023-06-12T15:47:01.010Z,97575.94
2023-06-12T15:49:29.357Z,97574.38
2023-06-12T15:51:57.598Z,97571.25
2023-06-12T15:54:25.802Z,97569.25
2023-06-12T15:56:54.182Z,97568.38
2023-06-12T15:59:22.618Z,97570.00
2023-06-12T16:01:53.539Z,97565.19
2023-06-12T16:04:22.973Z,97558.84
2023-06-12T16:06:51.378Z,97569.50
2023-06-12T16:09:20.146Z,97574.50
2023-06-12T16:11:49.043Z,97565.25
2023-06-12T16:14:17.692Z,97572.00
2023-06-12T16:16:47.042Z,97563.31
2023-06-12T16:19:15.289Z,97550.63
2023-06-12T16:21:44.732Z,97558.63
2023-06-12T16:24:12.775Z,97558.59
2023-06-12T16:26:42.955Z,97552.28
2023-06-12T16:29:11.009Z,97555.00
2023-06-12T16:31:39.239Z,97567.91
2023-06-12T16:34:07.590Z,97552.81
2023-06-12T16:36:36.372Z,97547.22
2023-06-12T16:39:06.069Z,97548.41
2023-06-12T16:41:34.241Z,97555.09
2023-06-12T16:44:02.515Z,97562.59
2023-06-12T16:46:30.680Z,97558.22
2023-06-12T16:48:58.942Z,97553.41
2023-06-12T16:51:27.049Z,97550.97
2023-06-12T16:53:56.080Z,97557.63
2023-06-12T16:56:25.456Z,97556.34
2023-06-12T16:58:53.584Z,97551.59
2023-06-12T17:01:21.801Z,97549.91
2023-06-12T17:03:50.206Z,97547.53
2023-06-12T17:06:18.343Z,97545.03
2023-06-12T17:08:46.721Z,97552.94
2023-06-12T17:11:17.172Z,97545.38
2023-06-12T17:13:46.628Z,97547.22
2023-06-12T17:16:15.002Z,97550.34
2023-06-12T17:18:43.394Z,97551.16
2023-06-12T17:21:11.799Z,97540.78
2023-06-12T17:23:40.004Z,97550.16
2023-06-12T17:26:08.111Z,97558.00
2023-06-12T17:28:36.370Z,97546.41
2023-06-12T17:31:05.988Z,97550.34
2023-06-12T17:33:34.700Z,97548.63
2023-06-12T17:36:04.733Z,97551.38
2023-06-12T17:38:32.971Z,97557.22
2023-06-12T17:41:01.051Z,97554.47
2023-06-12T17:43:29.824Z,97548.06
2023-06-12T17:45:58.326Z,97551.94
2023-06-12T17:48:27.943Z,97554.22
2023-06-12T17:50:56.172Z,97552.94
2023-06-12T17:53:24.201Z,97552.91
2023-06-12T17:55:52.870Z,97550.00
2023-06-12T17:58:21.009Z,97559.38
2023-06-12T18:00:49.408Z,97550.88
2023-06-12T18:03:19.059Z,97555.63
2023-06-12T18:05:51.831Z,97553.13
2023-06-12T18:08:20.997Z,97552.16
2023-06-12T18:10:49.471Z,97556.41
2023-06-12T18:13:20.573Z,97551.94
2023-06-12T18:15:51.397Z,97564.56
2023-06-12T18:18:20.114Z,97558.13
2023-06-12T18:20:50.156Z,97558.78
2023-06-12T18:23:18.329Z,97551.91
2023-06-12T18:25:46.681Z,97548.28
2023-06-12T18:28:15.545Z,97551.97
2023-06-12T18:30:44.465Z,97557.78
2023-06-12T18:33:12.939Z,97554.44
2023-06-12T18:35:41.620Z,97554.00
2023-06-12T18:38:11.309Z,97558.56
2023-06-12T18:40:45.249Z,97552.56
2023-06-12T18:43:18.178Z,97548.44
2023-06-12T18:45:48.403Z,97558.78
2023-06-12T18:48:16.720Z,97554.72
2023-06-12T18:50:44.907Z,97553.50
2023-06-12T18:53:15.374Z,97568.88
2023-06-12T18:55:43.943Z,97569.44
2023-06-12T18:58:12.076Z,97566.59
2023-06-12T19:00:40.787Z,97561.72
2023-06-12T19:03:09.190Z,97565.19
2023-06-12T19:05:37.508Z,97563.44
2023-06-12T19:08:05.466Z,97565.94
2023-06-12T19:10:36.214Z,97568.06
2023-06-12T19:13:04.518Z,97571.06
2023-06-12T19:15:32.777Z,97579.13
2023-06-12T19:18:02.105Z,97581.34
2023-06-12T19:20:30.251Z,97585.09
2023-06-12T19:22:58.507Z,97589.59
2023-06-12T19:25:26.819Z,97581.84
2023-06-12T19:27:59.795Z,97585.25
2023-06-12T19:30:28.165Z,97592.50
2023-06-12T19:32:58.194Z,97597.00
2023-06-12T19:35:26.260Z,97595.88
2023-06-12T19:37:54.203Z,97597.72
2023-06-12T19:40:22.328Z,97603.81
2023-06-12T19:42:50.476Z,97606.47
2023-06-12T19:45:24.116Z,97603.06
2023-06-12T19:47:52.697Z,97611.09
2023-06-12T19:50:22.153Z,97606.28
2023-06-12T19:52:50.799Z,97613.19
2023-06-12T19:55:18.948Z,97613.06
2023-06-12T19:57:47.364Z,97620.88
2023-06-12T20:00:17.036Z,97617.47
2023-06-12T20:02:49.158Z,97625.50
2023-06-12T20:05:18.869Z,97625.72
2023-06-12T20:07:48.607Z,97623.97
2023-06-12T20:10:17.217Z,97625.00
2023-06-12T20:12:45.687Z,97621.69
2023-06-12T20:15:13.922Z,97627.75
2023-06-12T20:17:42.310Z,97636.13
2023-06-12T20:20:12.577Z,97621.56
2023-06-12T20:22:40.938Z,97632.91
2023-06-12T20:25:11.559Z,97633.25
2023-06-12T20:27:41.125Z,97627.63
2023-06-12T20:30:10.622Z,97625.34
2023-06-12T20:32:38.888Z,97628.66
2023-06-12T20:35:07.859Z,97620.53
2023-06-12T20:37:38.559Z,97623.63
2023-06-12T20:40:07.594Z,97624.66
2023-06-12T20:42:35.740Z,97622.94
2023-06-12T20:45:03.905Z,97617.34
2023-06-12T20:47:31.914Z,97614.69
2023-06-12T20:50:00.192Z,97615.03
2023-06-12T20:52:28.611Z,97619.09
2023-06-12T20:54:58.244Z,97619.31
2023-06-12T20:57:26.317Z,97621.13
2023-06-12T20:59:54.307Z,97616.66
2023-06-12T21:02:22.498Z,97620.44
2023-06-12T21:04:50.987Z,97622.47
2023-06-12T21:07:20.027Z,97619.03
2023-06-12T21:09:49.052Z,97619.34
2023-06-12T21:12:18.373Z,97620.25
2023-06-12T21:14:46.681Z,97627.41
2023-06-12T21:17:15.093Z,97622.47
2023-06-12T21:19:44.956Z,97617.00
2023-06-12T21:22:13.275Z,97623.84
2023-06-12T21:24:41.633Z,97629.19
2023-06-12T21:27:09.591Z,97628.59
2023-06-12T21:29:39.259Z,97622.19
2023-06-12T21:32:08.790Z,97618.16
2023-06-12T21:34:36.883Z,97617.88
2023-06-12T21:37:21.486Z,97613.69
2023-06-12T21:39:51.478Z,97623.09
2023-06-12T21:42:20.394Z,97613.13
2023-06-12T21:44:50.189Z,97622.00
2023-06-12T21:47:18.323Z,97621.41
2023-06-12T21:49:46.329Z,97619.00
2023-06-12T21:52:14.976Z,97621.59
2023-06-12T21:54:42.979Z,97625.19
2023-06-12T21:57:12.720Z,97621.50
2023-06-12T21:59:40.833Z,97621.84
2023-06-12T22:02:10.248Z,97622.84
2023-06-12T22:04:38.466Z,97638.03
2023-06-12T22:07:07.009Z,97638.69
2023-06-12T22:09:35.289Z,97632.13
2023-06-12T22:12:03.348Z,97635.00
2023-06-12T22:14:31.414Z,97627.63
2023-06-12T22:16:59.665Z,97638.59
2023-06-12T22:19:29.191Z,97632.16
2023-06-12T22:21:57.414Z,97628.00
2023-06-12T22:24:25.570Z,97640.91
2023-06-12T22:26:53.888Z,97641.22
2023-06-12T22:29:21.865Z,97639.47
2023-06-12T22:31:50.375Z,97638.16
2023-06-12T22:34:18.527Z,97641.09
2023-06-12T22:36:48.122Z,97635.63
2023-06-12T22:39:16.791Z,97641.59
2023-06-12T22:41:45.103Z,97640.31
2023-06-12T22:44:13.314Z,97637.28
2023-06-12T22:46:42.005Z,97646.94
2023-06-12T22:49:12.026Z,97637.13
2023-06-12T22:51:40.048Z,97637.13
2023-06-12T22:54:09.973Z,97635.03
2023-06-12T22:56:38.223Z,97631.69
2023-06-12T22:59:06.574Z,97635.28
2023-06-12T23:01:34.939Z,97622.72
2023-06-12T23:04:02.943Z,97633.50
2023-06-12T23:06:32.913Z,97636.41
2023-06-12T23:09:01.327Z,97628.06
2023-06-12T23:11:30.989Z,97625.16
2023-06-12T23:13:59.184Z,97623.09
2023-06-12T23:16:29.241Z,97621.47
2023-06-12T23:18:57.649Z,97624.22
2023-06-12T23:21:25.829Z,97624.06
2023-06-12T23:23:56.028Z,97619.91
2023-06-12T23:26:29.875Z,97620.69
2023-06-12T23:28:59.356Z,97628.41
2023-06-12T23:31:28.047Z,97622.13
2023-06-12T23:33:56.561Z,97619.06
2023-06-12T23:36:24.941Z,97616.34
2023-06-12T23:38:52.979Z,97624.38
2023-06-12T23:41:20.993Z,97617.16
2023-06-12T23:43:49.150Z,97612.66
2023-06-12T23:46:19.234Z,97617.81
2023-06-12T23:48:47.527Z,97619.41
2023-06-12T23:51:16.807Z,97607.19
2023-06-12T23:53:44.841Z,97607.69
2023-06-12T23:56:14.538Z,97606.22
2023-06-12T23:58:42.749Z,97613.28
